sensor_id;sensor_type;location;lat;lon;timestamp;P1;durP1;ratioP1;P2;durP2;ratioP2
15273;SDS011;7738;49.532;11.156;2022-09-23T00:02:02;3.70;;;3.10;;
15273;SDS011;7738;49.532;11.156;2022-09-23T00:04:33;5.38;;;2.65;;
15273;SDS011;7738;49.532;11.156;2022-09-23T00:07:06;3.10;;;2.42;;
15273;SDS011;7738;49.532;11.156;2022-09-23T00:09:36;10.65;;;3.45;;
15273;SDS011;7738;49.532;11.156;2022-09-23T00:12:06;4.30;;;2.53;;
15273;SDS011;7738;49.532;11.156;2022-09-23T00:14:37;5.40;;;2.50;;
15273;SDS011;7738;49.532;11.156;2022-09-23T00:17:07;6.15;;;3.00;;
15273;SDS011;7738;49.532;11.156;2022-09-23T00:19:37;4.57;;;2.42;;
15273;SDS011;7738;49.532;11.156;2022-09-23T00:22:10;4.13;;;2.30;;
15273;SDS011;7738;49.532;11.156;2022-09-23T00:24:40;4.68;;;2.78;;
15273;SDS011;7738;49.532;11.156;2022-09-23T00:27:10;4.45;;;3.08;;
15273;SDS011;7738;49.532;11.156;2022-09-23T00:29:41;4.45;;;2.60;;
15273;SDS011;7738;49.532;11.156;2022-09-23T00:32:11;3.63;;;3.00;;
15273;SDS011;7738;49.532;11.156;2022-09-23T00:34:42;4.90;;;3.20;;
15273;SDS011;7738;49.532;11.156;2022-09-23T00:37:16;3.55;;;2.67;;
15273;SDS011;7738;49.532;11.156;2022-09-23T00:39:46;3.15;;;2.83;;
15273;SDS011;7738;49.532;11.156;2022-09-23T00:42:16;3.67;;;2.72;;
15273;SDS011;7738;49.532;11.156;2022-09-23T00:44:49;3.53;;;2.50;;
15273;SDS011;7738;49.532;11.156;2022-09-23T00:47:21;4.93;;;3.20;;
15273;SDS011;7738;49.532;11.156;2022-09-23T00:49:59;3.95;;;2.67;;
15273;SDS011;7738;49.532;11.156;2022-09-23T00:52:37;3.13;;;2.80;;
15273;SDS011;7738;49.532;11.156;2022-09-23T00:55:09;4.40;;;3.50;;
15273;SDS011;7738;49.532;11.156;2022-09-23T00:57:43;3.67;;;2.70;;
15273;SDS011;7738;49.532;11.156;2022-09-23T01:00:14;3.63;;;2.67;;
15273;SDS011;7738;49.532;11.156;2022-09-23T01:02:44;7.00;;;3.15;;
15273;SDS011;7738;49.532;11.156;2022-09-23T01:05:15;4.80;;;3.25;;
15273;SDS011;7738;49.532;11.156;2022-09-23T01:07:48;3.72;;;3.00;;
15273;SDS011;7738;49.532;11.156;2022-09-23T01:10:19;5.10;;;3.47;;
15273;SDS011;7738;49.532;11.156;2022-09-23T01:12:56;4.85;;;3.47;;
15273;SDS011;7738;49.532;11.156;2022-09-23T01:15:36;4.72;;;3.15;;
15273;SDS011;7738;49.532;11.156;2022-09-23T01:18:11;6.25;;;3.15;;
15273;SDS011;7738;49.532;11.156;2022-09-23T01:20:55;4.70;;;3.25;;
15273;SDS011;7738;49.532;11.156;2022-09-23T01:32:42;3.53;;;2.80;;
15273;SDS011;7738;49.532;11.156;2022-09-23T01:35:35;4.13;;;2.97;;
15273;SDS011;7738;49.532;11.156;2022-09-23T01:38:15;3.17;;;2.85;;
15273;SDS011;7738;49.532;11.156;2022-09-23T01:40:51;7.45;;;3.45;;
15273;SDS011;7738;49.532;11.156;2022-09-23T01:43:30;4.57;;;3.50;;
15273;SDS011;7738;49.532;11.156;2022-09-23T01:46:08;3.75;;;3.45;;
15273;SDS011;7738;49.532;11.156;2022-09-23T01:48:44;3.67;;;3.08;;
15273;SDS011;7738;49.532;11.156;2022-09-23T01:51:18;3.65;;;2.90;;
15273;SDS011;7738;49.532;11.156;2022-09-23T01:53:53;4.63;;;3.10;;
15273;SDS011;7738;49.532;11.156;2022-09-23T01:56:30;6.60;;;3.65;;
15273;SDS011;7738;49.532;11.156;2022-09-23T01:59:06;3.85;;;2.75;;
15273;SDS011;7738;49.532;11.156;2022-09-23T02:01:41;8.30;;;3.70;;
15273;SDS011;7738;49.532;11.156;2022-09-23T02:04:20;4.38;;;3.28;;
15273;SDS011;7738;49.532;11.156;2022-09-23T02:06:56;5.32;;;3.67;;
15273;SDS011;7738;49.532;11.156;2022-09-23T02:09:32;3.75;;;3.45;;
15273;SDS011;7738;49.532;11.156;2022-09-23T02:12:06;4.78;;;3.65;;
15273;SDS011;7738;49.532;11.156;2022-09-23T02:17:14;3.88;;;3.25;;
15273;SDS011;7738;49.532;11.156;2022-09-23T02:19:54;5.22;;;4.03;;
15273;SDS011;7738;49.532;11.156;2022-09-23T02:22:31;3.80;;;3.17;;
15273;SDS011;7738;49.532;11.156;2022-09-23T02:25:07;9.85;;;3.63;;
15273;SDS011;7738;49.532;11.156;2022-09-23T02:27:39;5.72;;;3.65;;
15273;SDS011;7738;49.532;11.156;2022-09-23T02:30:16;4.63;;;3.83;;
15273;SDS011;7738;49.532;11.156;2022-09-23T02:32:53;4.82;;;3.67;;
15273;SDS011;7738;49.532;11.156;2022-09-23T02:35:33;6.07;;;3.78;;
15273;SDS011;7738;49.532;11.156;2022-09-23T02:38:12;5.75;;;3.25;;
15273;SDS011;7738;49.532;11.156;2022-09-23T02:40:49;4.47;;;3.30;;
15273;SDS011;7738;49.532;11.156;2022-09-23T02:46:01;4.78;;;3.30;;
15273;SDS011;7738;49.532;11.156;2022-09-23T02:48:33;7.38;;;3.58;;
15273;SDS011;7738;49.532;11.156;2022-09-23T02:51:08;4.43;;;3.85;;
15273;SDS011;7738;49.532;11.156;2022-09-23T02:53:39;6.68;;;4.07;;
15273;SDS011;7738;49.532;11.156;2022-09-23T02:56:12;6.47;;;3.63;;
15273;SDS011;7738;49.532;11.156;2022-09-23T02:58:45;5.60;;;4.18;;
15273;SDS011;7738;49.532;11.156;2022-09-23T03:01:20;5.10;;;3.92;;
15273;SDS011;7738;49.532;11.156;2022-09-23T03:04:03;5.72;;;4.10;;
15273;SDS011;7738;49.532;11.156;2022-09-23T03:06:46;5.65;;;3.58;;
15273;SDS011;7738;49.532;11.156;2022-09-23T03:09:26;4.50;;;3.97;;
15273;SDS011;7738;49.532;11.156;2022-09-23T03:12:02;4.40;;;3.67;;
15273;SDS011;7738;49.532;11.156;2022-09-23T03:14:42;4.40;;;4.00;;
15273;SDS011;7738;49.532;11.156;2022-09-23T03:17:19;4.68;;;3.53;;
15273;SDS011;7738;49.532;11.156;2022-09-23T03:19:54;5.93;;;3.90;;
15273;SDS011;7738;49.532;11.156;2022-09-23T03:22:30;4.80;;;4.00;;
15273;SDS011;7738;49.532;11.156;2022-09-23T03:25:04;6.32;;;3.88;;
15273;SDS011;7738;49.532;11.156;2022-09-23T03:27:37;5.13;;;3.97;;
15273;SDS011;7738;49.532;11.156;2022-09-23T03:30:08;6.53;;;4.68;;
15273;SDS011;7738;49.532;11.156;2022-09-23T03:32:40;6.18;;;3.83;;
15273;SDS011;7738;49.532;11.156;2022-09-23T03:35:12;4.30;;;3.90;;
15273;SDS011;7738;49.532;11.156;2022-09-23T03:37:46;5.95;;;3.65;;
15273;SDS011;7738;49.532;11.156;2022-09-23T03:40:22;5.97;;;4.03;;
15273;SDS011;7738;49.532;11.156;2022-09-23T03:42:56;6.85;;;4.43;;
15273;SDS011;7738;49.532;11.156;2022-09-23T03:45:30;4.85;;;3.85;;
15273;SDS011;7738;49.532;11.156;2022-09-23T03:48:02;6.13;;;3.85;;
15273;SDS011;7738;49.532;11.156;2022-09-23T03:50:32;6.20;;;3.97;;
15273;SDS011;7738;49.532;11.156;2022-09-23T03:53:05;5.53;;;4.07;;
15273;SDS011;7738;49.532;11.156;2022-09-23T03:55:39;8.05;;;4.40;;
15273;SDS011;7738;49.532;11.156;2022-09-23T03:58:11;5.97;;;4.50;;
15273;SDS011;7738;49.532;11.156;2022-09-23T04:00:41;5.07;;;4.50;;
15273;SDS011;7738;49.532;11.156;2022-09-23T04:03:12;5.50;;;4.60;;
15273;SDS011;7738;49.532;11.156;2022-09-23T04:05:44;4.38;;;3.83;;
15273;SDS011;7738;49.532;11.156;2022-09-23T04:08:17;5.45;;;4.32;;
15273;SDS011;7738;49.532;11.156;2022-09-23T04:10:47;6.22;;;4.55;;
15273;SDS011;7738;49.532;11.156;2022-09-23T04:13:20;5.45;;;4.80;;
15273;SDS011;7738;49.532;11.156;2022-09-23T04:15:50;5.07;;;4.25;;
15273;SDS011;7738;49.532;11.156;2022-09-23T04:18:21;5.22;;;4.72;;
15273;SDS011;7738;49.532;11.156;2022-09-23T04:20:55;5.47;;;4.55;;
15273;SDS011;7738;49.532;11.156;2022-09-23T04:23:28;5.75;;;4.80;;
15273;SDS011;7738;49.532;11.156;2022-09-23T04:25:58;8.38;;;4.60;;
15273;SDS011;7738;49.532;11.156;2022-09-23T04:31:09;6.28;;;4.22;;
15273;SDS011;7738;49.532;11.156;2022-09-23T04:33:39;5.63;;;4.32;;
15273;SDS011;7738;49.532;11.156;2022-09-23T04:36:09;6.43;;;4.90;;
15273;SDS011;7738;49.532;11.156;2022-09-23T04:38:44;7.97;;;5.15;;
15273;SDS011;7738;49.532;11.156;2022-09-23T04:41:20;5.70;;;4.38;;
15273;SDS011;7738;49.532;11.156;2022-09-23T04:43:50;7.80;;;4.82;;
15273;SDS011;7738;49.532;11.156;2022-09-23T04:46:22;4.80;;;4.40;;
15273;SDS011;7738;49.532;11.156;2022-09-23T04:48:53;6.85;;;5.45;;
15273;SDS011;7738;49.532;11.156;2022-09-23T04:51:24;6.28;;;5.00;;
15273;SDS011;7738;49.532;11.156;2022-09-23T04:53:57;7.90;;;5.25;;
15273;SDS011;7738;49.532;11.156;2022-09-23T04:56:28;5.50;;;4.88;;
15273;SDS011;7738;49.532;11.156;2022-09-23T04:59:00;8.57;;;5.05;;
15273;SDS011;7738;49.532;11.156;2022-09-23T05:01:31;6.63;;;4.57;;
15273;SDS011;7738;49.532;11.156;2022-09-23T05:04:04;7.32;;;5.55;;
15273;SDS011;7738;49.532;11.156;2022-09-23T05:06:36;5.65;;;4.88;;
15273;SDS011;7738;49.532;11.156;2022-09-23T05:09:08;10.95;;;5.45;;
15273;SDS011;7738;49.532;11.156;2022-09-23T05:11:42;8.02;;;5.40;;
15273;SDS011;7738;49.532;11.156;2022-09-23T05:14:12;7.82;;;6.03;;
15273;SDS011;7738;49.532;11.156;2022-09-23T05:16:42;7.20;;;5.20;;
15273;SDS011;7738;49.532;11.156;2022-09-23T05:19:13;6.45;;;5.22;;
15273;SDS011;7738;49.532;11.156;2022-09-23T05:21:43;7.15;;;5.13;;
15273;SDS011;7738;49.532;11.156;2022-09-23T05:24:16;6.93;;;5.25;;
15273;SDS011;7738;49.532;11.156;2022-09-23T05:26:46;7.15;;;5.80;;
15273;SDS011;7738;49.532;11.156;2022-09-23T05:29:17;6.90;;;6.18;;
15273;SDS011;7738;49.532;11.156;2022-09-23T05:31:47;8.40;;;5.82;;
15273;SDS011;7738;49.532;11.156;2022-09-23T05:34:17;10.63;;;5.88;;
15273;SDS011;7738;49.532;11.156;2022-09-23T05:36:48;8.00;;;5.43;;
15273;SDS011;7738;49.532;11.156;2022-09-23T05:39:21;7.95;;;5.90;;
15273;SDS011;7738;49.532;11.156;2022-09-23T05:41:51;9.75;;;7.53;;
15273;SDS011;7738;49.532;11.156;2022-09-23T05:44:22;7.82;;;5.97;;
15273;SDS011;7738;49.532;11.156;2022-09-23T05:46:52;9.25;;;6.40;;
15273;SDS011;7738;49.532;11.156;2022-09-23T05:49:22;7.70;;;6.57;;
15273;SDS011;7738;49.532;11.156;2022-09-23T05:52:12;7.88;;;5.72;;
15273;SDS011;7738;49.532;11.156;2022-09-23T05:54:45;7.57;;;6.22;;
15273;SDS011;7738;49.532;11.156;2022-09-23T05:57:15;8.75;;;5.93;;
15273;SDS011;7738;49.532;11.156;2022-09-23T05:59:47;7.55;;;6.18;;
15273;SDS011;7738;49.532;11.156;2022-09-23T06:02:17;6.18;;;5.40;;
15273;SDS011;7738;49.532;11.156;2022-09-23T06:04:47;9.40;;;6.38;;
15273;SDS011;7738;49.532;11.156;2022-09-23T06:07:17;5.93;;;5.00;;
15273;SDS011;7738;49.532;11.156;2022-09-23T06:09:51;10.40;;;5.57;;
15273;SDS011;7738;49.532;11.156;2022-09-23T06:12:21;5.85;;;4.93;;
15273;SDS011;7738;49.532;11.156;2022-09-23T06:14:51;6.95;;;5.50;;
15273;SDS011;7738;49.532;11.156;2022-09-23T06:17:21;9.38;;;5.15;;
15273;SDS011;7738;49.532;11.156;2022-09-23T06:19:51;8.00;;;5.90;;
15273;SDS011;7738;49.532;11.156;2022-09-23T06:22:23;10.00;;;5.53;;
15273;SDS011;7738;49.532;11.156;2022-09-23T06:24:56;7.85;;;5.68;;
15273;SDS011;7738;49.532;11.156;2022-09-23T06:27:26;7.25;;;5.47;;
15273;SDS011;7738;49.532;11.156;2022-09-23T06:29:57;7.50;;;5.57;;
15273;SDS011;7738;49.532;11.156;2022-09-23T06:32:27;6.55;;;5.50;;
15273;SDS011;7738;49.532;11.156;2022-09-23T06:34:57;5.68;;;5.15;;
15273;SDS011;7738;49.532;11.156;2022-09-23T06:37:27;12.93;;;4.97;;
15273;SDS011;7738;49.532;11.156;2022-09-23T06:40:00;6.03;;;4.93;;
15273;SDS011;7738;49.532;11.156;2022-09-23T06:42:31;6.10;;;4.50;;
15273;SDS011;7738;49.532;11.156;2022-09-23T06:45:01;5.28;;;4.05;;
15273;SDS011;7738;49.532;11.156;2022-09-23T06:47:31;5.30;;;4.35;;
15273;SDS011;7738;49.532;11.156;2022-09-23T06:50:03;5.40;;;4.40;;
15273;SDS011;7738;49.532;11.156;2022-09-23T06:52:33;11.00;;;4.70;;
15273;SDS011;7738;49.532;11.156;2022-09-23T06:55:07;6.90;;;4.70;;
15273;SDS011;7738;49.532;11.156;2022-09-23T06:57:37;6.07;;;3.40;;
15273;SDS011;7738;49.532;11.156;2022-09-23T07:00:08;4.65;;;3.88;;
15273;SDS011;7738;49.532;11.156;2022-09-23T07:02:39;5.50;;;4.10;;
15273;SDS011;7738;49.532;11.156;2022-09-23T07:05:10;4.93;;;4.40;;
15273;SDS011;7738;49.532;11.156;2022-09-23T07:07:41;5.03;;;3.72;;
15273;SDS011;7738;49.532;11.156;2022-09-23T07:10:14;4.55;;;3.80;;
15273;SDS011;7738;49.532;11.156;2022-09-23T07:12:44;4.47;;;3.42;;
15273;SDS011;7738;49.532;11.156;2022-09-23T07:15:14;5.97;;;4.38;;
15273;SDS011;7738;49.532;11.156;2022-09-23T07:17:44;4.93;;;4.00;;
15273;SDS011;7738;49.532;11.156;2022-09-23T07:20:14;7.22;;;3.53;;
15273;SDS011;7738;49.532;11.156;2022-09-23T07:22:47;4.70;;;3.60;;
15273;SDS011;7738;49.532;11.156;2022-09-23T07:25:20;6.68;;;3.60;;
15273;SDS011;7738;49.532;11.156;2022-09-23T07:27:51;3.58;;;3.28;;
15273;SDS011;7738;49.532;11.156;2022-09-23T07:30:21;4.13;;;3.38;;
15273;SDS011;7738;49.532;11.156;2022-09-23T07:32:52;5.68;;;4.05;;
15273;SDS011;7738;49.532;11.156;2022-09-23T07:35:22;4.68;;;3.13;;
15273;SDS011;7738;49.532;11.156;2022-09-23T07:37:53;4.78;;;3.13;;
15273;SDS011;7738;49.532;11.156;2022-09-23T07:40:26;4.32;;;3.40;;
15273;SDS011;7738;49.532;11.156;2022-09-23T07:42:56;5.05;;;2.90;;
15273;SDS011;7738;49.532;11.156;2022-09-23T07:45:27;3.35;;;3.05;;
15273;SDS011;7738;49.532;11.156;2022-09-23T07:47:59;3.67;;;2.90;;
15273;SDS011;7738;49.532;11.156;2022-09-23T07:50:30;6.25;;;3.10;;
15273;SDS011;7738;49.532;11.156;2022-09-23T07:53:00;4.95;;;3.55;;
15273;SDS011;7738;49.532;11.156;2022-09-23T07:55:34;3.58;;;2.80;;
15273;SDS011;7738;49.532;11.156;2022-09-23T07:58:04;5.25;;;3.70;;
15273;SDS011;7738;49.532;11.156;2022-09-23T08:00:34;4.80;;;3.47;;
15273;SDS011;7738;49.532;11.156;2022-09-23T08:03:05;4.95;;;3.17;;
15273;SDS011;7738;49.532;11.156;2022-09-23T08:05:35;4.00;;;3.08;;
15273;SDS011;7738;49.532;11.156;2022-09-23T08:08:05;3.35;;;2.72;;
15273;SDS011;7738;49.532;11.156;2022-09-23T08:10:38;3.08;;;2.55;;
15273;SDS011;7738;49.532;11.156;2022-09-23T08:13:08;4.22;;;2.78;;
15273;SDS011;7738;49.532;11.156;2022-09-23T08:15:39;3.17;;;2.53;;
15273;SDS011;7738;49.532;11.156;2022-09-23T08:18:09;2.90;;;2.53;;
15273;SDS011;7738;49.532;11.156;2022-09-23T08:20:39;3.70;;;2.63;;
15273;SDS011;7738;49.532;11.156;2022-09-23T08:23:14;3.20;;;2.78;;
15273;SDS011;7738;49.532;11.156;2022-09-23T08:25:47;3.80;;;2.67;;
15273;SDS011;7738;49.532;11.156;2022-09-23T08:28:25;3.40;;;2.33;;
15273;SDS011;7738;49.532;11.156;2022-09-23T08:30:55;9.38;;;2.50;;
15273;SDS011;7738;49.532;11.156;2022-09-23T08:33:25;4.53;;;2.58;;
15273;SDS011;7738;49.532;11.156;2022-09-23T08:35:57;3.13;;;2.65;;
15273;SDS011;7738;49.532;11.156;2022-09-23T08:38:29;3.55;;;2.55;;
15273;SDS011;7738;49.532;11.156;2022-09-23T08:41:06;3.08;;;2.10;;
15273;SDS011;7738;49.532;11.156;2022-09-23T08:43:43;2.47;;;1.92;;
15273;SDS011;7738;49.532;11.156;2022-09-23T08:46:18;3.58;;;2.00;;
15273;SDS011;7738;49.532;11.156;2022-09-23T08:48:51;2.78;;;2.05;;
15273;SDS011;7738;49.532;11.156;2022-09-23T08:51:24;2.53;;;1.88;;
15273;SDS011;7738;49.532;11.156;2022-09-23T08:54:00;3.25;;;1.52;;
15273;SDS011;7738;49.532;11.156;2022-09-23T08:56:33;2.50;;;1.60;;
15273;SDS011;7738;49.532;11.156;2022-09-23T08:59:07;2.88;;;1.70;;
15273;SDS011;7738;49.532;11.156;2022-09-23T09:01:42;2.78;;;1.98;;
15273;SDS011;7738;49.532;11.156;2022-09-23T09:04:14;2.72;;;1.67;;
15273;SDS011;7738;49.532;11.156;2022-09-23T09:06:48;1.67;;;1.43;;
15273;SDS011;7738;49.532;11.156;2022-09-23T09:09:39;1.83;;;1.30;;
15273;SDS011;7738;49.532;11.156;2022-09-23T09:12:19;2.33;;;1.70;;
15273;SDS011;7738;49.532;11.156;2022-09-23T09:14:56;2.03;;;1.42;;
15273;SDS011;7738;49.532;11.156;2022-09-23T09:17:33;1.90;;;1.60;;
15273;SDS011;7738;49.532;11.156;2022-09-23T09:20:15;1.55;;;1.45;;
15273;SDS011;7738;49.532;11.156;2022-09-23T09:22:51;1.95;;;1.05;;
15273;SDS011;7738;49.532;11.156;2022-09-23T09:25:36;1.85;;;1.00;;
15273;SDS011;7738;49.532;11.156;2022-09-23T09:28:17;1.50;;;1.10;;
15273;SDS011;7738;49.532;11.156;2022-09-23T09:30:55;2.65;;;0.73;;
15273;SDS011;7738;49.532;11.156;2022-09-23T09:33:26;1.95;;;1.17;;
15273;SDS011;7738;49.532;11.156;2022-09-23T09:36:05;1.73;;;0.98;;
15273;SDS011;7738;49.532;11.156;2022-09-23T09:38:47;3.33;;;1.40;;
15273;SDS011;7738;49.532;11.156;2022-09-23T09:41:18;2.88;;;1.00;;
15273;SDS011;7738;49.532;11.156;2022-09-23T09:43:53;1.70;;;1.10;;
15273;SDS011;7738;49.532;11.156;2022-09-23T09:46:29;2.08;;;0.82;;
15273;SDS011;7738;49.532;11.156;2022-09-23T09:49:13;1.42;;;0.73;;
15273;SDS011;7738;49.532;11.156;2022-09-23T09:52:01;1.75;;;0.88;;
15273;SDS011;7738;49.532;11.156;2022-09-23T09:54:41;1.00;;;0.80;;
15273;SDS011;7738;49.532;11.156;2022-09-23T09:57:15;2.58;;;0.88;;
15273;SDS011;7738;49.532;11.156;2022-09-23T09:59:54;2.05;;;0.95;;
15273;SDS011;7738;49.532;11.156;2022-09-23T10:02:25;1.65;;;0.75;;
15273;SDS011;7738;49.532;11.156;2022-09-23T10:04:59;1.17;;;0.50;;
15273;SDS011;7738;49.532;11.156;2022-09-23T10:07:31;1.25;;;0.73;;
15273;SDS011;7738;49.532;11.156;2022-09-23T10:10:10;1.00;;;0.52;;
15273;SDS011;7738;49.532;11.156;2022-09-23T10:12:58;2.83;;;1.20;;
15273;SDS011;7738;49.532;11.156;2022-09-23T10:15:46;1.00;;;0.60;;
15273;SDS011;7738;49.532;11.156;2022-09-23T10:18:22;1.33;;;0.77;;
15273;SDS011;7738;49.532;11.156;2022-09-23T10:21:07;1.02;;;0.60;;
15273;SDS011;7738;49.532;11.156;2022-09-23T10:23:41;1.10;;;0.50;;
15273;SDS011;7738;49.532;11.156;2022-09-23T10:26:13;0.82;;;0.50;;
15273;SDS011;7738;49.532;11.156;2022-09-23T10:28:45;2.75;;;0.65;;
15273;SDS011;7738;49.532;11.156;2022-09-23T10:31:23;2.35;;;0.45;;
15273;SDS011;7738;49.532;11.156;2022-09-23T10:33:54;0.90;;;0.32;;
15273;SDS011;7738;49.532;11.156;2022-09-23T10:36:26;1.17;;;0.60;;
15273;SDS011;7738;49.532;11.156;2022-09-23T10:38:57;0.98;;;0.40;;
15273;SDS011;7738;49.532;11.156;2022-09-23T10:41:41;1.38;;;0.40;;
15273;SDS011;7738;49.532;11.156;2022-09-23T10:44:29;1.17;;;0.30;;
15273;SDS011;7738;49.532;11.156;2022-09-23T10:47:21;1.02;;;0.30;;
15273;SDS011;7738;49.532;11.156;2022-09-23T10:50:17;4.32;;;2.47;;
15273;SDS011;7738;49.532;11.156;2022-09-23T10:52:53;0.82;;;0.60;;
15273;SDS011;7738;49.532;11.156;2022-09-23T10:55:29;0.60;;;0.40;;
15273;SDS011;7738;49.532;11.156;2022-09-23T11:01:04;1.13;;;0.40;;
15273;SDS011;7738;49.532;11.156;2022-09-23T11:06:40;0.82;;;0.22;;
15273;SDS011;7738;49.532;11.156;2022-09-23T11:09:25;0.90;;;0.10;;
15273;SDS011;7738;49.532;11.156;2022-09-23T11:12:02;0.50;;;0.20;;
15273;SDS011;7738;49.532;11.156;2022-09-23T11:14:44;0.80;;;0.20;;
15273;SDS011;7738;49.532;11.156;2022-09-23T11:17:21;1.08;;;0.20;;
15273;SDS011;7738;49.532;11.156;2022-09-23T11:20:13;0.90;;;0.30;;
15273;SDS011;7738;49.532;11.156;2022-09-23T11:23:08;2.58;;;0.30;;
15273;SDS011;7738;49.532;11.156;2022-09-23T11:25:42;1.83;;;0.30;;
15273;SDS011;7738;49.532;11.156;2022-09-23T11:28:19;1.02;;;0.40;;
15273;SDS011;7738;49.532;11.156;2022-09-23T11:30:58;0.50;;;0.20;;
15273;SDS011;7738;49.532;11.156;2022-09-23T11:33:41;2.00;;;0.50;;
15273;SDS011;7738;49.532;11.156;2022-09-23T11:36:18;0.60;;;0.10;;
15273;SDS011;7738;49.532;11.156;2022-09-23T11:38:52;4.13;;;0.30;;
15273;SDS011;7738;49.532;11.156;2022-09-23T11:41:24;0.60;;;0.10;;
15273;SDS011;7738;49.532;11.156;2022-09-23T11:43:58;0.32;;;0.10;;
15273;SDS011;7738;49.532;11.156;2022-09-23T11:46:31;0.90;;;0.22;;
15273;SDS011;7738;49.532;11.156;2022-09-23T11:49:04;0.90;;;0.20;;
15273;SDS011;7738;49.532;11.156;2022-09-23T11:51:41;1.08;;;0.28;;
15273;SDS011;7738;49.532;11.156;2022-09-23T11:54:18;0.73;;;0.32;;
15273;SDS011;7738;49.532;11.156;2022-09-23T11:56:50;2.88;;;1.52;;
15273;SDS011;7738;49.532;11.156;2022-09-23T11:59:24;2.15;;;1.15;;
15273;SDS011;7738;49.532;11.156;2022-09-23T12:02:12;17.83;;;8.90;;
15273;SDS011;7738;49.532;11.156;2022-09-23T12:04:54;3.88;;;2.47;;
15273;SDS011;7738;49.532;11.156;2022-09-23T12:07:33;1.90;;;0.93;;
15273;SDS011;7738;49.532;11.156;2022-09-23T12:10:09;2.10;;;0.52;;
15273;SDS011;7738;49.532;11.156;2022-09-23T12:12:41;1.33;;;0.65;;
15273;SDS011;7738;49.532;11.156;2022-09-23T12:15:24;0.90;;;0.10;;
15273;SDS011;7738;49.532;11.156;2022-09-23T12:17:58;3.88;;;2.33;;
15273;SDS011;7738;49.532;11.156;2022-09-23T12:20:38;4.88;;;4.38;;
15273;SDS011;7738;49.532;11.156;2022-09-23T12:23:18;5.25;;;3.50;;
15273;SDS011;7738;49.532;11.156;2022-09-23T12:25:53;4.20;;;2.60;;
15273;SDS011;7738;49.532;11.156;2022-09-23T12:28:27;11.07;;;6.47;;
15273;SDS011;7738;49.532;11.156;2022-09-23T12:30:59;12.40;;;7.22;;
15273;SDS011;7738;49.532;11.156;2022-09-23T12:33:30;1.73;;;0.50;;
15273;SDS011;7738;49.532;11.156;2022-09-23T12:36:02;0.20;;;0.03;;
15273;SDS011;7738;49.532;11.156;2022-09-23T12:38:36;1.98;;;0.60;;
15273;SDS011;7738;49.532;11.156;2022-09-23T12:41:17;1.92;;;0.22;;
15273;SDS011;7738;49.532;11.156;2022-09-23T12:43:52;0.40;;;0.10;;
15273;SDS011;7738;49.532;11.156;2022-09-23T12:46:24;0.50;;;0.20;;
15273;SDS011;7738;49.532;11.156;2022-09-23T12:48:59;11.93;;;7.05;;
15273;SDS011;7738;49.532;11.156;2022-09-23T12:51:30;8.57;;;5.45;;
15273;SDS011;7738;49.532;11.156;2022-09-23T12:56:56;1.23;;;0.38;;
15273;SDS011;7738;49.532;11.156;2022-09-23T12:59:28;0.60;;;0.30;;
15273;SDS011;7738;49.532;11.156;2022-09-23T13:05:02;0.85;;;0.20;;
15273;SDS011;7738;49.532;11.156;2022-09-23T13:07:56;2.40;;;0.40;;
15273;SDS011;7738;49.532;11.156;2022-09-23T13:10:31;0.50;;;0.30;;
15273;SDS011;7738;49.532;11.156;2022-09-23T13:13:06;3.33;;;0.30;;
15273;SDS011;7738;49.532;11.156;2022-09-23T13:15:38;0.60;;;0.25;;
15273;SDS011;7738;49.532;11.156;2022-09-23T13:21:16;1.00;;;0.45;;
15273;SDS011;7738;49.532;11.156;2022-09-23T13:26:52;1.73;;;0.40;;
15273;SDS011;7738;49.532;11.156;2022-09-23T13:29:25;0.80;;;0.13;;
15273;SDS011;7738;49.532;11.156;2022-09-23T13:31:56;2.05;;;0.50;;
15273;SDS011;7738;49.532;11.156;2022-09-23T13:34:29;0.60;;;0.13;;
15273;SDS011;7738;49.532;11.156;2022-09-23T13:37:10;0.47;;;0.20;;
15273;SDS011;7738;49.532;11.156;2022-09-23T13:39:48;2.80;;;0.20;;
15273;SDS011;7738;49.532;11.156;2022-09-23T13:42:23;1.58;;;0.22;;
15273;SDS011;7738;49.532;11.156;2022-09-23T13:44:56;0.65;;;0.20;;
15273;SDS011;7738;49.532;11.156;2022-09-23T13:47:27;0.60;;;0.20;;
15273;SDS011;7738;49.532;11.156;2022-09-23T13:49:59;1.58;;;0.10;;
15273;SDS011;7738;49.532;11.156;2022-09-23T13:52:30;2.05;;;0.40;;
15273;SDS011;7738;49.532;11.156;2022-09-23T13:55:01;0.73;;;0.28;;
15273;SDS011;7738;49.532;11.156;2022-09-23T13:57:34;0.95;;;0.20;;
15273;SDS011;7738;49.532;11.156;2022-09-23T14:00:15;0.80;;;0.43;;
15273;SDS011;7738;49.532;11.156;2022-09-23T14:02:46;1.02;;;0.30;;
15273;SDS011;7738;49.532;11.156;2022-09-23T14:05:21;1.00;;;0.30;;
15273;SDS011;7738;49.532;11.156;2022-09-23T14:07:52;0.98;;;0.40;;
15273;SDS011;7738;49.532;11.156;2022-09-23T14:10:23;0.63;;;0.20;;
15273;SDS011;7738;49.532;11.156;2022-09-23T14:12:56;0.90;;;0.50;;
15273;SDS011;7738;49.532;11.156;2022-09-23T14:15:26;0.67;;;0.20;;
15273;SDS011;7738;49.532;11.156;2022-09-23T14:17:58;1.88;;;0.30;;
15273;SDS011;7738;49.532;11.156;2022-09-23T14:20:31;0.47;;;0.20;;
15273;SDS011;7738;49.532;11.156;2022-09-23T14:23:02;0.82;;;0.43;;
15273;SDS011;7738;49.532;11.156;2022-09-23T14:25:33;0.82;;;0.30;;
15273;SDS011;7738;49.532;11.156;2022-09-23T14:28:07;1.05;;;0.40;;
15273;SDS011;7738;49.532;11.156;2022-09-23T14:30:41;0.50;;;0.20;;
15273;SDS011;7738;49.532;11.156;2022-09-23T14:33:13;1.10;;;0.35;;
15273;SDS011;7738;49.532;11.156;2022-09-23T14:35:48;1.10;;;0.30;;
15273;SDS011;7738;49.532;11.156;2022-09-23T14:38:21;1.40;;;0.32;;
15273;SDS011;7738;49.532;11.156;2022-09-23T14:41:12;0.52;;;0.20;;
15273;SDS011;7738;49.532;11.156;2022-09-23T14:43:56;0.30;;;0.10;;
15273;SDS011;7738;49.532;11.156;2022-09-23T14:46:28;0.55;;;0.38;;
15273;SDS011;7738;49.532;11.156;2022-09-23T14:49:01;1.00;;;0.30;;
15273;SDS011;7738;49.532;11.156;2022-09-23T14:51:36;1.00;;;0.40;;
15273;SDS011;7738;49.532;11.156;2022-09-23T14:54:25;1.25;;;0.10;;
15273;SDS011;7738;49.532;11.156;2022-09-23T14:57:16;0.57;;;0.30;;
15273;SDS011;7738;49.532;11.156;2022-09-23T14:59:57;1.40;;;0.50;;
15273;SDS011;7738;49.532;11.156;2022-09-23T15:02:32;0.70;;;0.30;;
15273;SDS011;7738;49.532;11.156;2022-09-23T15:05:07;1.00;;;0.38;;
15273;SDS011;7738;49.532;11.156;2022-09-23T15:07:48;1.17;;;0.50;;
15273;SDS011;7738;49.532;11.156;2022-09-23T15:10:21;0.77;;;0.38;;
15273;SDS011;7738;49.532;11.156;2022-09-23T15:12:54;0.80;;;0.38;;
15273;SDS011;7738;49.532;11.156;2022-09-23T15:15:35;1.85;;;0.40;;
15273;SDS011;7738;49.532;11.156;2022-09-23T15:18:05;1.08;;;0.50;;
15273;SDS011;7738;49.532;11.156;2022-09-23T15:20:36;1.85;;;0.68;;
15273;SDS011;7738;49.532;11.156;2022-09-23T15:23:29;2.15;;;0.40;;
15273;SDS011;7738;49.532;11.156;2022-09-23T15:26:02;1.30;;;0.20;;
15273;SDS011;7738;49.532;11.156;2022-09-23T15:28:34;0.93;;;0.50;;
15273;SDS011;7738;49.532;11.156;2022-09-23T15:31:08;0.80;;;0.30;;
15273;SDS011;7738;49.532;11.156;2022-09-23T15:33:42;1.15;;;0.40;;
15273;SDS011;7738;49.532;11.156;2022-09-23T15:36:14;1.13;;;0.40;;
15273;SDS011;7738;49.532;11.156;2022-09-23T15:38:46;2.63;;;0.80;;
15273;SDS011;7738;49.532;11.156;2022-09-23T15:41:17;1.48;;;0.50;;
15273;SDS011;7738;49.532;11.156;2022-09-23T15:43:49;1.92;;;0.73;;
15273;SDS011;7738;49.532;11.156;2022-09-23T15:46:24;1.20;;;0.43;;
15273;SDS011;7738;49.532;11.156;2022-09-23T15:48:57;1.45;;;0.52;;
15273;SDS011;7738;49.532;11.156;2022-09-23T15:51:30;1.05;;;0.50;;
15273;SDS011;7738;49.532;11.156;2022-09-23T15:54:00;1.02;;;0.63;;
15273;SDS011;7738;49.532;11.156;2022-09-23T15:56:30;1.25;;;0.50;;
15273;SDS011;7738;49.532;11.156;2022-09-23T15:59:01;2.33;;;0.38;;
15273;SDS011;7738;49.532;11.156;2022-09-23T16:01:34;2.20;;;0.57;;
15273;SDS011;7738;49.532;11.156;2022-09-23T16:04:05;0.90;;;0.60;;
15273;SDS011;7738;49.532;11.156;2022-09-23T16:06:35;2.10;;;0.82;;